createdAt,value
2023-11-25T00:01:42.486Z,97283.00
2023-11-25T00:04:09.674Z,97291.22
2023-11-25T00:06:38.035Z,97297.09
2023-11-25T00:09:05.196Z,97299.06
2023-11-25T00:11:32.236Z,97302.19
2023-11-25T00:14:00.339Z,97303.97
2023-11-25T00:16:27.493Z,97312.38
2023-11-25T00:18:55.140Z,97320.78
2023-11-25T00:21:22.202Z,97323.13
2023-11-25T00:23:49.181Z,97324.34
2023-11-25T00:26:16.272Z,97333.75
2023-11-25T00:28:53.043Z,97326.50
2023-11-25T00:31:20.336Z,97327.84
2023-11-25T00:33:47.339Z,97331.78
2023-11-25T00:36:14.334Z,97333.72
2023-11-25T00:38:41.440Z,97341.94
2023-11-25T00:41:08.414Z,97345.09
2023-11-25T00:43:35.521Z,97347.44
2023-11-25T00:46:04.429Z,97355.69
2023-11-25T00:48:32.673Z,97366.84
2023-11-25T00:50:59.701Z,97378.78
2023-11-25T00:53:26.746Z,97376.44
2023-11-25T00:55:53.746Z,97375.84
2023-11-25T00:58:20.751Z,97376.81
2023-11-25T01:00:48.076Z,97380.00
2023-11-25T01:03:15.099Z,97382.34
2023-11-25T01:05:42.217Z,97392.72
2023-11-25T01:08:09.424Z,97395.66
2023-11-25T01:10:36.657Z,97394.31
2023-11-25T01:13:04.382Z,97400.16
2023-11-25T01:15:31.528Z,97399.19
2023-11-25T01:17:58.589Z,97406.63
2023-11-25T01:20:25.593Z,97400.34
2023-11-25T01:22:52.659Z,97409.75
2023-11-25T01:25:19.798Z,97414.66
2023-11-25T01:27:47.036Z,97415.44
2023-11-25T01:30:14.694Z,97423.09
2023-11-25T01:32:42.287Z,97418.00
2023-11-25T01:35:09.514Z,97424.28
2023-11-25T01:37:36.710Z,97422.09
2023-11-25T01:40:06.909Z,97427.75
2023-11-25T01:42:34.055Z,97434.22
2023-11-25T01:45:01.101Z,97443.66
2023-11-25T01:47:28.361Z,97441.47
2023-11-25T01:49:55.515Z,97447.50
2023-11-25T01:52:23.720Z,97448.44
2023-11-25T01:54:52.325Z,97440.22
2023-11-25T01:57:21.888Z,97448.84
2023-11-25T01:59:50.004Z,97449.06
2023-11-25T02:02:22.044Z,97452.84
2023-11-25T02:04:49.274Z,97457.91
2023-11-25T02:07:17.765Z,97458.88
2023-11-25T02:09:45.048Z,97455.31
2023-11-25T02:12:12.502Z,97461.59
2023-11-25T02:14:42.266Z,97461.97
2023-11-25T02:17:09.456Z,97466.13
2023-11-25T02:19:36.592Z,97467.66
2023-11-25T02:22:07.910Z,97468.47
2023-11-25T02:24:37.985Z,97470.56
2023-11-25T02:27:06.621Z,97469.41
2023-11-25T02:29:34.261Z,97473.91
2023-11-25T02:32:01.490Z,97471.50
2023-11-25T02:34:28.973Z,97459.69
2023-11-25T02:36:59.882Z,97465.91
2023-11-25T02:39:29.034Z,97476.09
2023-11-25T02:41:56.004Z,97483.00
2023-11-25T02:44:23.193Z,97481.97
2023-11-25T02:46:51.134Z,97490.31
2023-11-25T02:49:18.399Z,97485.38
2023-11-25T02:51:49.700Z,97495.59
2023-11-25T02:54:17.660Z,97501.63
2023-11-25T02:56:44.876Z,97497.44
2023-11-25T02:59:13.936Z,97497.81
2023-11-25T03:01:50.548Z,97495.03
2023-11-25T03:04:21.214Z,97497.38
2023-11-25T03:06:52.713Z,97493.09
2023-11-25T03:09:20.438Z,97484.66
2023-11-25T03:11:48.173Z,97487.88
2023-11-25T03:14:17.567Z,97488.69
2023-11-25T03:16:45.095Z,97492.38
2023-11-25T03:19:12.632Z,97493.56
2023-11-25T03:21:40.158Z,97504.31
2023-11-25T03:24:09.470Z,97512.22
2023-11-25T03:26:36.906Z,97518.41
2023-11-25T03:29:04.039Z,97523.09
2023-11-25T03:31:31.067Z,97519.06
2023-11-25T03:33:58.286Z,97511.00
2023-11-25T03:36:25.348Z,97516.28
2023-11-25T03:38:52.552Z,97512.09
2023-11-25T03:41:21.107Z,97508.66
2023-11-25T03:43:48.178Z,97498.94
2023-11-25T03:46:15.421Z,97508.91
2023-11-25T03:54:18.915Z,97545.06
2023-11-25T03:56:46.241Z,97535.63
2023-11-25T03:59:13.243Z,97534.22
2023-11-25T04:01:43.235Z,97534.25
2023-11-25T04:04:12.080Z,97534.03
2023-11-25T04:06:39.261Z,97529.34
2023-11-25T04:09:06.436Z,97533.13
2023-11-25T04:11:33.418Z,97539.00
2023-11-25T04:14:00.834Z,97544.47
2023-11-25T04:16:27.943Z,97543.63
2023-11-25T04:18:55.700Z,97534.22
2023-11-25T04:21:23.069Z,97539.47
2023-11-25T04:23:54.264Z,97535.91
2023-11-25T04:26:21.392Z,97532.81
2023-11-25T04:28:49.137Z,97535.41
2023-11-25T04:31:16.355Z,97534.06
2023-11-25T04:33:43.549Z,97529.78
2023-11-25T04:36:19.244Z,97525.88
2023-11-25T04:38:47.676Z,97537.19
2023-11-25T04:41:14.774Z,97546.94
2023-11-25T04:43:41.839Z,97546.69
2023-11-25T04:46:12.671Z,97543.63
2023-11-25T04:48:40.311Z,97546.91
2023-11-25T04:51:07.385Z,97547.22
2023-11-25T04:53:34.426Z,97551.13
2023-11-25T04:56:01.409Z,97545.44
2023-11-25T04:58:28.544Z,97545.63
2023-11-25T05:00:55.684Z,97557.00
2023-11-25T05:03:23.268Z,97554.28
2023-11-25T05:05:50.341Z,97552.28
2023-11-25T05:08:18.285Z,97555.34
2023-11-25T05:10:45.283Z,97558.25
2023-11-25T05:13:14.097Z,97550.06
2023-11-25T05:15:43.135Z,97555.72
2023-11-25T05:18:10.107Z,97563.81
2023-11-25T05:20:37.164Z,97563.22
2023-11-25T05:23:07.204Z,97551.47
2023-11-25T05:25:34.924Z,97554.22
2023-11-25T05:28:02.169Z,97562.19
2023-11-25T05:30:29.203Z,97569.91
2023-11-25T05:32:56.235Z,97564.22
2023-11-25T05:35:23.379Z,97563.06
2023-11-25T05:37:50.576Z,97565.94
2023-11-25T05:40:17.684Z,97564.94
2023-11-25T05:42:49.989Z,97569.75
2023-11-25T05:45:19.667Z,97573.53
2023-11-25T05:47:47.059Z,97572.66
2023-11-25T05:50:21.617Z,97575.38
2023-11-25T05:52:49.420Z,97580.47
2023-11-25T05:55:16.747Z,97574.81
2023-11-25T05:57:45.831Z,97591.06
2023-11-25T06:00:13.621Z,97584.28
2023-11-25T06:02:40.953Z,97581.47
2023-11-25T06:05:08.780Z,97576.75
2023-11-25T06:07:36.209Z,97581.59
2023-11-25T06:10:04.889Z,97586.81
2023-11-25T06:12:33.244Z,97592.88
2023-11-25T06:15:00.724Z,97582.44
2023-11-25T06:17:28.092Z,97579.00
2023-11-25T06:19:55.502Z,97585.00
2023-11-25T06:22:22.992Z,97585.47
2023-11-25T06:24:49.982Z,97581.59
2023-11-25T06:27:21.089Z,97570.09
2023-11-25T06:29:48.712Z,97579.59
2023-11-25T06:32:15.692Z,97584.75
2023-11-25T06:34:42.817Z,97586.41
2023-11-25T06:37:09.889Z,97594.63
2023-11-25T06:39:36.971Z,97591.56
2023-11-25T06:42:07.450Z,97589.97
2023-11-25T06:44:34.556Z,97587.66
2023-11-25T06:47:01.912Z,97586.94
2023-11-25T06:49:29.083Z,97592.09
2023-11-25T06:51:56.150Z,97585.38
2023-11-25T06:54:24.864Z,97581.28
2023-11-25T06:56:52.387Z,97588.56
2023-11-25T06:59:19.626Z,97596.59
2023-11-25T07:01:47.391Z,97589.69
2023-11-25T07:04:15.475Z,97596.34
2023-11-25T07:06:42.494Z,97595.88
2023-11-25T07:09:10.787Z,97599.94
2023-11-25T07:11:38.565Z,97599.44
2023-11-25T07:14:06.567Z,97601.63
2023-11-25T07:16:34.730Z,97597.59
2023-11-25T07:19:02.286Z,97599.84
2023-11-25T07:21:29.267Z,97605.41
2023-11-25T07:23:56.839Z,97598.09
2023-11-25T07:26:24.065Z,97603.09
2023-11-25T07:28:51.085Z,97603.03
2023-11-25T07:31:18.229Z,97590.41
2023-11-25T07:33:47.047Z,97598.22
2023-11-25T07:36:15.088Z,97594.66
2023-11-25T07:38:42.096Z,97592.09
2023-11-25T07:41:16.759Z,97590.34
2023-11-25T07:43:43.889Z,97594.91
2023-11-25T07:46:12.676Z,97598.66
2023-11-25T07:48:39.864Z,97596.50
2023-11-25T07:51:06.877Z,97597.72
2023-11-25T07:53:33.909Z,97607.28
2023-11-25T07:56:02.487Z,97624.81
2023-11-25T07:58:30.654Z,97623.13
2023-11-25T08:00:59.602Z,97629.19
2023-11-25T08:03:26.637Z,97628.22
2023-11-25T08:05:54.420Z,97633.28
2023-11-25T08:08:22.086Z,97642.25
2023-11-25T08:10:49.383Z,97639.72
2023-11-25T08:13:19.650Z,97635.75
2023-11-25T08:15:46.891Z,97627.22
2023-11-25T08:18:16.747Z,97622.53
2023-11-25T08:20:43.805Z,97618.53
2023-11-25T08:23:11.308Z,97621.28
2023-11-25T08:25:38.488Z,97618.41
2023-11-25T08:28:05.708Z,97620.31
2023-11-25T08:30:32.698Z,97617.56
2023-11-25T08:33:01.253Z,97616.47
2023-11-25T08:35:28.359Z,97613.59
2023-11-25T08:37:55.545Z,97616.25
2023-11-25T08:40:23.334Z,97614.25
2023-11-25T08:42:50.961Z,97613.47
2023-11-25T08:45:18.250Z,97612.06
2023-11-25T08:47:45.917Z,97622.25
2023-11-25T08:50:17.412Z,97613.47
2023-11-25T08:52:46.514Z,97614.31
2023-11-25T08:55:18.705Z,97610.91
2023-11-25T08:57:46.318Z,97618.00
2023-11-25T09:00:19.970Z,97620.97
2023-11-25T09:02:49.772Z,97628.84
2023-11-25T09:05:17.116Z,97620.84
2023-11-25T09:07:45.387Z,97618.22
2023-11-25T09:10:12.839Z,97619.31
2023-11-25T09:12:41.382Z,97622.06
2023-11-25T09:15:10.180Z,97628.94
2023-11-25T09:17:40.079Z,97619.50
2023-11-25T09:20:11.376Z,97620.00
2023-11-25T09:22:41.523Z,97636.81
2023-11-25T09:25:13.537Z,97645.53
2023-11-25T09:27:41.650Z,97633.59
2023-11-25T09:30:13.267Z,97634.38
2023-11-25T09:32:45.753Z,97626.50
2023-11-25T09:35:14.325Z,97627.88
2023-11-25T09:37:43.223Z,97636.88
2023-11-25T09:40:16.525Z,97635.69
2023-11-25T09:42:45.365Z,97623.47
2023-11-25T09:45:14.245Z,97636.34
2023-11-25T09:47:45.428Z,97628.22
2023-11-25T09:50:17.727Z,97638.63
2023-11-25T09:52:50.338Z,97632.91
2023-11-25T09:55:20.072Z,97627.00
2023-11-25T09:57:51.462Z,97625.47
2023-11-25T10:00:19.190Z,97631.53
2023-11-25T10:02:53.128Z,97630.03
2023-11-25T10:05:20.210Z,97612.81
2023-11-25T10:07:47.988Z,97607.94
2023-11-25T10:10:17.926Z,97605.88
2023-11-25T10:12:44.940Z,97606.28
2023-11-25T10:15:12.009Z,97606.50
2023-11-25T10:17:39.473Z,97603.63
2023-11-25T10:20:24.074Z,97610.81
2023-11-25T10:22:55.166Z,97616.06
2023-11-25T10:25:23.011Z,97612.03
2023-11-25T10:27:52.736Z,97600.81
2023-11-25T10:30:22.176Z,97594.91
2023-11-25T10:32:51.307Z,97596.91
2023-11-25T10:35:20.213Z,97598.66
2023-11-25T10:37:47.663Z,97596.34
2023-11-25T10:40:18.365Z,97603.00
2023-11-25T10:42:49.610Z,97587.13
2023-11-25T10:45:17.594Z,97578.56
2023-11-25T10:47:45.270Z,97576.03
2023-11-25T10:50:14.841Z,97569.41
2023-11-25T10:52:44.920Z,97563.63
2023-11-25T10:55:12.309Z,97567.34
2023-11-25T10:57:41.868Z,97565.53
2023-11-25T11:00:13.022Z,97563.41
2023-11-25T11:03:06.979Z,97544.25
2023-11-25T11:05:50.588Z,97527.69
2023-11-25T11:08:22.198Z,97532.31
2023-11-25T11:10:55.858Z,97523.78
2023-11-25T11:13:30.544Z,97525.56
2023-11-25T11:16:01.660Z,97526.69
2023-11-25T11:18:37.579Z,97526.69
2023-11-25T11:21:07.899Z,97522.91
2023-11-25T11:23:38.819Z,97522.91
2023-11-25T11:26:29.467Z,97517.16
2023-11-25T11:29:15.029Z,97524.25
2023-11-25T11:31:48.479Z,97516.81
2023-11-25T11:34:15.801Z,97514.44
2023-11-25T11:36:42.804Z,97512.66
2023-11-25T11:39:12.964Z,97513.44
2023-11-25T11:41:40.513Z,97510.13
2023-11-25T11:44:09.050Z,97511.69
2023-11-25T11:46:40.111Z,97510.16
2023-11-25T11:49:09.416Z,97505.28
2023-11-25T11:51:36.703Z,97501.97
2023-11-25T11:54:21.983Z,97495.72
2023-11-25T11:57:02.373Z,97503.19
2023-11-25T12:00:14.595Z,97499.84
2023-11-25T12:02:44.558Z,97497.84
2023-11-25T12:05:12.325Z,97489.03
2023-11-25T12:07:40.160Z,97484.91
2023-11-25T12:10:07.872Z,97493.34
2023-11-25T12:12:41.961Z,97490.59
2023-11-25T12:15:10.160Z,97485.13
2023-11-25T12:17:37.704Z,97485.88
2023-11-25T12:20:09.831Z,97485.88
2023-11-25T12:22:37.034Z,97491.75
2023-11-25T12:25:05.570Z,97486.44
2023-11-25T12:27:34.200Z,97477.25
2023-11-25T12:30:01.649Z,97472.16
2023-11-25T12:32:28.717Z,97482.34
2023-11-25T12:34:55.821Z,97470.97
2023-11-25T12:37:23.094Z,97473.72
2023-11-25T12:39:52.012Z,97476.06
2023-11-25T12:42:25.217Z,97465.50
2023-11-25T12:44:52.358Z,97459.44
2023-11-25T12:47:20.247Z,97455.31
2023-11-25T12:49:48.852Z,97466.28
2023-11-25T12:52:24.581Z,97460.41
2023-11-25T12:54:54.170Z,97460.63
2023-11-25T12:57:27.301Z,97464.31
2023-11-25T12:59:56.774Z,97462.38
2023-11-25T13:02:23.982Z,97461.97
2023-11-25T13:04:51.633Z,97457.88
2023-11-25T13:07:31.953Z,97457.06
2023-11-25T13:09:59.600Z,97457.47
2023-11-25T13:12:29.696Z,97455.72
2023-11-25T13:14:57.038Z,97464.72
2023-11-25T13:17:25.210Z,97463.94
2023-11-25T13:19:52.384Z,97455.88
2023-11-25T13:22:20.799Z,97452.97
2023-11-25T13:24:47.977Z,97453.38
2023-11-25T13:27:15.170Z,97451.78
2023-11-25T13:29:45.910Z,97441.19
2023-11-25T13:32:13.008Z,97443.16
2023-11-25T13:34:41.455Z,97442.75
2023-11-25T13:37:09.290Z,97441.97
2023-11-25T13:39:37.192Z,97444.91
2023-11-25T13:42:06.196Z,97445.69
2023-11-25T13:44:33.417Z,97439.81
2023-11-25T13:47:00.593Z,97436.47
2023-11-25T13:49:30.735Z,97439.78
2023-11-25T13:51:58.600Z,97433.50
2023-11-25T13:54:30.139Z,97433.53
2023-11-25T13:56:57.782Z,97428.22
2023-11-25T13:59:25.508Z,97424.69
2023-11-25T14:01:52.767Z,97422.69
2023-11-25T14:04:20.846Z,97422.34
2023-11-25T14:06:51.764Z,97422.13
2023-11-25T14:09:19.571Z,97422.25
2023-11-25T14:11:47.020Z,97422.22
2023-11-25T14:14:14.266Z,97419.69
2023-11-25T14:16:46.430Z,97424.00
2023-11-25T14:19:13.778Z,97421.88
2023-11-25T14:21:40.719Z,97423.03
2023-11-25T14:24:08.098Z,97432.28
2023-11-25T14:26:38.418Z,97436.44
2023-11-25T14:29:05.808Z,97442.91
2023-11-25T14:31:35.677Z,97439.53
2023-11-25T14:34:03.092Z,97448.16
2023-11-25T14:36:31.655Z,97433.81
2023-11-25T14:38:58.822Z,97435.72
2023-11-25T14:41:26.451Z,97436.94
2023-11-25T14:43:54.855Z,97434.63
2023-11-25T14:46:23.412Z,97449.34
2023-11-25T14:48:50.575Z,97435.63
2023-11-25T14:51:17.554Z,97445.06
2023-11-25T14:53:44.580Z,97443.50
2023-11-25T14:56:12.083Z,97448.63
2023-11-25T14:58:39.320Z,97443.53
2023-11-25T15:01:07.226Z,97446.25
2023-11-25T15:03:34.382Z,97449.00
2023-11-25T15:06:01.423Z,97452.94
2023-11-25T15:08:28.386Z,97445.47
2023-11-25T15:10:57.466Z,97441.94
2023-11-25T15:13:24.549Z,97449.41
2023-11-25T15:15:52.614Z,97441.59
2023-11-25T15:18:19.871Z,97439.59
2023-11-25T15:20:47.026Z,97436.47
2023-11-25T15:23:14.295Z,97438.84
2023-11-25T15:25:41.633Z,97441.59
2023-11-25T15:28:08.921Z,97431.78
2023-11-25T15:30:35.911Z,97431.75
2023-11-25T15:33:03.217Z,97431.19
2023-11-25T15:35:30.481Z,97435.50
2023-11-25T15:37:57.528Z,97440.97
2023-11-25T15:40:24.670Z,97433.72
2023-11-25T15:42:51.765Z,97436.66
2023-11-25T15:45:19.122Z,97437.06
2023-11-25T15:47:46.915Z,97436.09
2023-11-25T15:50:16.321Z,97437.84
2023-11-25T15:52:43.773Z,97429.19
2023-11-25T15:55:12.874Z,97432.16
2023-11-25T15:57:40.194Z,97429.41
2023-11-25T16:00:15.098Z,97433.75
2023-11-25T16:02:43.242Z,97439.84
2023-11-25T16:05:15.490Z,97426.66
2023-11-25T16:07:42.863Z,97434.31
2023-11-25T16:10:11.413Z,97440.59
2023-11-25T16:12:39.631Z,97440.41
2023-11-25T16:15:10.344Z,97446.28
2023-11-25T16:17:38.582Z,97449.03
2023-11-25T16:20:07.180Z,97445.50
2023-11-25T16:22:34.385Z,97452.75
2023-11-25T16:25:01.405Z,97452.75
2023-11-25T16:27:28.658Z,97441.16
2023-11-25T16:29:56.549Z,97457.66
2023-11-25T16:32:23.813Z,97446.28
2023-11-25T16:34:50.992Z,97449.81
2023-11-25T16:37:18.102Z,97450.00
2023-11-25T16:39:45.104Z,97452.94
2023-11-25T16:42:12.193Z,97451.97
2023-11-25T16:44:39.585Z,97452.56
2023-11-25T16:47:06.737Z,97455.31
2023-11-25T16:49:41.058Z,97457.06
2023-11-25T16:52:10.424Z,97464.34
2023-11-25T16:54:37.734Z,97466.69
2023-11-25T16:57:04.711Z,97470.44
2023-11-25T16:59:31.704Z,97478.06
2023-11-25T17:01:58.880Z,97469.44
2023-11-25T17:04:26.024Z,97475.31
2023-11-25T17:06:53.060Z,97478.44
2023-11-25T17:09:20.928Z,97470.63
2023-11-25T17:11:47.904Z,97482.38
2023-11-25T17:14:15.031Z,97476.09
2023-11-25T17:16:42.201Z,97487.09
2023-11-25T17:19:11.534Z,97486.31
2023-11-25T17:21:38.511Z,97489.84
2023-11-25T17:24:06.642Z,97495.16
2023-11-25T17:26:33.708Z,97495.31
2023-11-25T17:29:00.944Z,97495.72
2023-11-25T17:31:28.217Z,97500.63
2023-11-25T17:33:55.235Z,97492.97
2023-11-25T17:36:22.178Z,97496.31
2023-11-25T17:38:49.345Z,97499.06
2023-11-25T17:41:19.383Z,97496.88
2023-11-25T17:43:46.550Z,97502.41
2023-11-25T17:46:14.566Z,97505.34
2023-11-25T17:48:42.497Z,97514.94
2023-11-25T17:51:09.682Z,97504.75
2023-11-25T17:53:36.875Z,97507.09
2023-11-25T17:56:04.405Z,97516.72
2023-11-25T17:58:31.411Z,97518.47
2023-11-25T18:00:58.694Z,97516.13
2023-11-25T18:03:25.781Z,97516.91
2023-11-25T18:05:52.781Z,97515.50
2023-11-25T18:08:19.857Z,97517.69
2023-11-25T18:10:47.035Z,97518.47
2023-11-25T18:13:14.161Z,97512.00
2023-11-25T18:15:41.291Z,97511.59
2023-11-25T18:18:08.401Z,97507.50
2023-11-25T18:20:35.560Z,97511.41
2023-11-25T18:23:02.598Z,97507.88
2023-11-25T18:25:30.431Z,97520.03
2023-11-25T18:27:57.589Z,97515.34
2023-11-25T18:30:25.724Z,97512.19
2023-11-25T18:32:53.257Z,97513.38
2023-11-25T18:35:20.269Z,97507.28
2023-11-25T18:37:48.016Z,97513.38
2023-11-25T18:40:15.908Z,97511.03
2023-11-25T18:42:42.987Z,97508.28
2023-11-25T18:45:10.911Z,97514.38
2023-11-25T18:47:38.220Z,97512.41
2023-11-25T18:50:06.483Z,97512.78
2023-11-25T18:52:33.544Z,97513.78
2023-11-25T18:55:00.669Z,97510.25
2023-11-25T18:57:28.045Z,97512.59
2023-11-25T18:59:55.120Z,97507.50
2023-11-25T19:02:22.256Z,97506.50
2023-11-25T19:04:49.435Z,97516.13
2023-11-25T19:07:16.506Z,97514.38
2023-11-25T19:09:43.483Z,97518.47
2023-11-25T19:12:12.502Z,97512.59
2023-11-25T19:14:39.531Z,97525.16
2023-11-25T19:17:09.046Z,97529.09
2023-11-25T19:19:36.640Z,97520.03
2023-11-25T19:22:04.715Z,97521.22
2023-11-25T19:24:31.844Z,97515.94
2023-11-25T19:26:58.902Z,97524.75
2023-11-25T19:29:26.224Z,97519.88
2023-11-25T19:31:53.406Z,97516.91
2023-11-25T19:34:20.524Z,97528.88
2023-11-25T19:36:48.430Z,97526.13
2023-11-25T19:39:17.041Z,97538.31
2023-11-25T19:41:44.142Z,97540.06
2023-11-25T19:44:11.285Z,97540.84
2023-11-25T19:46:38.353Z,97542.63
2023-11-25T19:49:06.025Z,97538.09
2023-11-25T19:51:33.115Z,97549.88
2023-11-25T19:54:01.816Z,97559.50
2023-11-25T19:56:32.110Z,97564.81
2023-11-25T19:58:59.191Z,97561.66
2023-11-25T20:01:26.221Z,97567.16
2023-11-25T20:03:53.265Z,97571.47
2023-11-25T20:06:20.331Z,97575.78
2023-11-25T20:08:47.417Z,97579.91
2023-11-25T20:11:14.466Z,97580.09
2023-11-25T20:13:41.482Z,97579.13
2023-11-25T20:16:08.818Z,97585.19
2023-11-25T20:18:35.915Z,97592.84
2023-11-25T20:21:02.930Z,97601.09
2023-11-25T20:23:29.968Z,97609.72
2023-11-25T20:25:56.955Z,97598.09
2023-11-25T20:28:24.132Z,97604.59
2023-11-25T20:30:51.110Z,97597.31
2023-11-25T20:33:18.125Z,97592.59
2023-11-25T20:35:45.163Z,97604.94
2023-11-25T20:38:12.228Z,97616.13
2023-11-25T20:40:39.387Z,97619.66
2023-11-25T20:43:06.502Z,97610.84
2023-11-25T20:45:35.897Z,97621.03
2023-11-25T20:48:05.392Z,97627.56
2023-11-25T20:50:34.689Z,97622.25
2023-11-25T20:53:03.456Z,97631.09
2023-11-25T20:55:30.587Z,97623.44
2023-11-25T20:57:57.724Z,97629.50
2023-11-25T21:00:24.918Z,97630.91
2023-11-25T21:02:52.031Z,97633.06
2023-11-25T21:05:20.808Z,97635.25
2023-11-25T21:07:47.830Z,97637.22
2023-11-25T21:10:15.956Z,97633.47
2023-11-25T21:12:43.087Z,97636.81
2023-11-25T21:15:10.682Z,97640.91
2023-11-25T21:17:37.826Z,97649.75
2023-11-25T21:20:06.192Z,97653.84
2023-11-25T21:22:34.241Z,97644.44
2023-11-25T21:25:02.911Z,97653.88
2023-11-25T21:27:31.970Z,97659.41
2023-11-25T21:29:58.964Z,97666.88
2023-11-25T21:32:30.070Z,97661.00
2023-11-25T21:34:57.278Z,97659.44
2023-11-25T21:37:24.882Z,97660.41
2023-11-25T21:39:52.350Z,97670.41
2023-11-25T21:42:19.555Z,97673.16
2023-11-25T21:44:47.991Z,97682.59
2023-11-25T21:47:16.197Z,97677.13
2023-11-25T21:49:43.533Z,97677.72
2023-11-25T21:52:11.312Z,97693.25
2023-11-25T21:54:39.867Z,97690.09
2023-11-25T21:57:08.480Z,97691.09
2023-11-25T21:59:35.536Z,97694.81
2023-11-25T22:02:02.917Z,97698.34
2023-11-25T22:04:30.152Z,97705.19
2023-11-25T22:06:57.113Z,97701.81
2023-11-25T22:09:24.226Z,97707.88
2023-11-25T22:11:51.297Z,97708.91
2023-11-25T22:14:18.411Z,97717.56
2023-11-25T22:16:46.009Z,97721.47
2023-11-25T22:19:13.301Z,97728.56
2023-11-25T22:21:41.124Z,97729.34
2023-11-25T22:24:12.522Z,97733.66
2023-11-25T22:26:48.657Z,97734.25
2023-11-25T22:29:15.899Z,97736.03
2023-11-25T22:31:43.596Z,97738.00
2023-11-25T22:34:12.406Z,97738.34
2023-11-25T22:36:39.680Z,97745.41
2023-11-25T22:39:08.140Z,97746.59
2023-11-25T22:41:36.257Z,97742.06
2023-11-25T22:44:03.532Z,97749.53
2023-11-25T22:46:30.692Z,97745.78
2023-11-25T22:48:57.750Z,97748.16
2023-11-25T22:51:25.488Z,97745.53
2023-11-25T22:53:54.709Z,97748.66
2023-11-25T22:56:21.716Z,97756.63
2023-11-25T22:58:48.708Z,97753.09
2023-11-25T23:01:26.250Z,97757.88
2023-11-25T23:03:56.181Z,97744.16
2023-11-25T23:06:24.671Z,97749.31
2023-11-25T23:08:53.814Z,97753.63
2023-11-25T23:11:22.125Z,97763.47
2023-11-25T23:13:50.647Z,97757.59
2023-11-25T23:16:19.633Z,97763.09
2023-11-25T23:18:46.807Z,97763.53
2023-11-25T23:21:13.754Z,97771.34
2023-11-25T23:23:46.432Z,97767.38
2023-11-25T23:26:16.234Z,97768.53
2023-11-25T23:28:43.749Z,97766.34
2023-11-25T23:31:10.817Z,97767.91
2023-11-25T23:33:38.803Z,97762.59
2023-11-25T23:36:06.421Z,97769.63
2023-11-25T23:38:34.224Z,97767.19
2023-11-25T23:41:01.840Z,97768.88
2023-11-25T23:43:29.895Z,97775.09
2023-11-25T23:45:57.710Z,97770.97
2023-11-25T23:48:24.949Z,97766.25
2023-11-25T23:50:52.445Z,97763.09
2023-11-25T23:53:22.268Z,97771.59
2023-11-25T23:55:50.379Z,97769.84
2023-11-25T23:58:17.545Z,97772.50
